createdAt,value
2022-09-23T00:01:30.625Z,6.26
2022-09-23T00:04:00.238Z,6.24
2022-09-23T00:06:28.324Z,6.20
2022-09-23T00:08:56.264Z,6.17
2022-09-23T00:11:26.476Z,6.14
2022-09-23T00:13:57.864Z,6.12
2022-09-23T00:16:29.120Z,6.08
2022-09-23T00:18:57.111Z,6.04
2022-09-23T00:21:25.331Z,5.99
2022-09-23T00:23:53.357Z,5.93
2022-09-23T00:26:22.652Z,5.87
2022-09-23T00:28:51.456Z,5.80
2022-09-23T00:31:23.255Z,5.75
2022-09-23T00:33:54.834Z,5.69
2022-09-23T00:36:23.351Z,5.65
2022-09-23T00:38:51.840Z,5.62
2022-09-23T00:41:19.871Z,5.61
2022-09-23T00:43:52.874Z,5.62
2022-09-23T00:46:40.959Z,5.62
2022-09-23T00:49:28.317Z,5.65
2022-09-23T00:52:02.951Z,5.69
2022-09-23T00:54:31.023Z,5.73
2022-09-23T00:57:00.930Z,5.80
2022-09-23T00:59:29.241Z,5.86
2022-09-23T01:01:58.948Z,5.93
2022-09-23T01:04:28.741Z,5.98
2022-09-23T01:06:56.589Z,6.03
2022-09-23T01:09:25.316Z,6.10
2022-09-23T01:12:26.942Z,6.14
2022-09-23T01:15:17.660Z,6.15
2022-09-23T01:18:21.868Z,6.12
2022-09-23T01:21:16.633Z,6.06
2022-09-23T01:24:09.364Z,5.99
2022-09-23T01:26:56.758Z,5.94
2022-09-23T01:30:01.582Z,5.86
2022-09-23T01:32:46.306Z,5.81
2022-09-23T01:35:35.317Z,5.76
2022-09-23T01:38:16.346Z,5.73
2022-09-23T01:40:59.577Z,5.70
2022-09-23T01:43:56.357Z,5.69
2022-09-23T01:46:31.044Z,5.71
2022-09-23T01:49:19.225Z,5.77
2022-09-23T01:51:53.443Z,5.86
2022-09-23T01:54:34.220Z,5.94
2022-09-23T01:57:22.787Z,6.02
2022-09-23T01:59:57.064Z,6.10
2022-09-23T02:02:35.109Z,6.18
2022-09-23T02:05:11.207Z,6.26
2022-09-23T02:07:45.375Z,6.34
2022-09-23T02:10:20.504Z,6.40
2022-09-23T02:12:52.429Z,6.45
2022-09-23T02:15:25.041Z,6.50
2022-09-23T02:17:58.855Z,6.54
2022-09-23T02:20:30.390Z,6.54
2022-09-23T02:23:07.633Z,6.57
2022-09-23T02:25:47.792Z,6.59
2022-09-23T02:28:25.231Z,6.59
2022-09-23T02:31:07.839Z,6.59
2022-09-23T02:33:46.427Z,6.63
2022-09-23T02:36:26.117Z,6.65
2022-09-23T02:39:00.698Z,6.69
2022-09-23T02:42:01.685Z,6.72
2022-09-23T02:44:31.076Z,6.75
2022-09-23T02:46:59.401Z,6.76
2022-09-23T02:49:29.429Z,6.76
2022-09-23T02:52:04.664Z,6.77
2022-09-23T02:54:33.993Z,6.80
2022-09-23T02:57:05.900Z,6.84
2022-09-23T02:59:35.914Z,6.89
2022-09-23T03:02:27.578Z,6.94
2022-09-23T03:05:23.901Z,7.01
2022-09-23T03:08:29.998Z,7.08
2022-09-23T03:11:08.585Z,7.16
2022-09-23T03:14:17.464Z,7.20
2022-09-23T03:17:00.435Z,7.21
2022-09-23T03:19:45.675Z,7.21
2022-09-23T03:22:35.154Z,7.20
2022-09-23T03:25:09.367Z,7.17
2022-09-23T03:27:39.084Z,7.13
2022-09-23T03:30:08.625Z,7.12
2022-09-23T03:32:38.662Z,7.11
2022-09-23T03:35:07.333Z,7.11
2022-09-23T03:37:53.407Z,7.10
2022-09-23T03:40:30.358Z,7.08
2022-09-23T03:43:01.498Z,7.08
2022-09-23T03:45:33.104Z,7.07
2022-09-23T03:48:01.801Z,7.04
2022-09-23T03:50:32.060Z,7.00
2022-09-23T03:53:00.070Z,6.98
2022-09-23T03:55:28.062Z,6.95
2022-09-23T03:57:56.701Z,6.92
2022-09-23T04:00:24.537Z,6.87
2022-09-23T04:02:52.528Z,6.85
2022-09-23T04:05:20.431Z,6.84
2022-09-23T04:07:49.178Z,6.85
2022-09-23T04:10:17.165Z,6.85
2022-09-23T04:12:45.077Z,6.86
2022-09-23T04:15:13.089Z,6.89
2022-09-23T04:17:41.893Z,6.89
2022-09-23T04:20:10.798Z,6.90
2022-09-23T04:22:38.666Z,6.92
2022-09-23T04:25:07.653Z,6.92
2022-09-23T04:27:37.937Z,6.94
2022-09-23T04:30:07.009Z,6.96
2022-09-23T04:32:36.068Z,6.98
2022-09-23T04:35:04.837Z,6.98
2022-09-23T04:37:32.981Z,6.99
2022-09-23T04:40:01.258Z,7.01
2022-09-23T04:42:30.665Z,7.01
2022-09-23T04:45:02.646Z,7.01
2022-09-23T04:48:14.007Z,7.02
2022-09-23T04:51:28.304Z,7.03
2022-09-23T04:54:41.332Z,7.02
2022-09-23T04:57:44.973Z,7.02
2022-09-23T05:00:43.073Z,6.99
2022-09-23T05:03:43.201Z,6.99
2022-09-23T05:07:12.658Z,6.97
2022-09-23T05:10:56.073Z,6.96
2022-09-23T05:14:25.970Z,6.99
2022-09-23T05:17:28.895Z,7.00
2022-09-23T05:20:33.850Z,7.02
2022-09-23T05:26:28.893Z,7.18
2022-09-23T05:29:36.936Z,7.29
2022-09-23T05:32:46.174Z,7.42
2022-09-23T05:36:26.140Z,7.56
2022-09-23T05:39:15.255Z,7.65
2022-09-23T05:42:07.039Z,7.62
2022-09-23T05:45:15.532Z,7.78
2022-09-23T05:47:53.515Z,7.88
2022-09-23T05:51:02.307Z,7.93
2022-09-23T05:54:07.339Z,8.07
2022-09-23T05:57:39.916Z,8.18
2022-09-23T06:00:45.876Z,8.25
2022-09-23T06:03:55.895Z,8.28
2022-09-23T06:07:16.577Z,8.23
2022-09-23T06:10:28.943Z,8.25
2022-09-23T06:13:38.219Z,8.37
2022-09-23T06:16:39.069Z,8.42
2022-09-23T06:19:48.880Z,8.51
2022-09-23T06:22:57.916Z,8.52
2022-09-23T06:26:22.591Z,8.55
2022-09-23T06:32:52.141Z,8.64
2022-09-23T06:37:04.132Z,8.71
2022-09-23T06:39:52.949Z,8.83
2022-09-23T06:42:21.020Z,8.93
2022-09-23T06:44:49.713Z,8.99
2022-09-23T06:47:20.407Z,9.09
2022-09-23T06:49:54.013Z,9.15
2022-09-23T06:52:35.745Z,9.20
2022-09-23T06:55:05.339Z,9.29
2022-09-23T06:57:38.940Z,9.39
2022-09-23T07:20:40.031Z,10.57
2022-09-23T07:23:14.774Z,10.52
2022-09-23T07:26:11.007Z,10.56
2022-09-23T07:33:32.193Z,10.59
2022-09-23T07:36:43.950Z,10.66
2022-09-23T07:43:28.154Z,10.82
2022-09-23T07:47:15.606Z,10.85
2022-09-23T07:50:28.121Z,10.95
2022-09-23T07:53:48.354Z,11.07
2022-09-23T07:56:55.644Z,11.19
2022-09-23T07:59:29.402Z,11.13
2022-09-23T08:02:28.225Z,11.26
2022-09-23T08:05:20.708Z,11.29
2022-09-23T08:08:32.692Z,11.45
2022-09-23T08:12:16.297Z,11.53
2022-09-23T08:15:24.246Z,11.43
2022-09-23T08:18:19.784Z,11.40
2022-09-23T08:20:53.380Z,11.49
2022-09-23T08:24:07.855Z,11.57
2022-09-23T08:26:37.993Z,11.64
2022-09-23T08:29:19.941Z,11.63
2022-09-23T08:31:47.683Z,11.57
2022-09-23T08:34:17.811Z,11.58
2022-09-23T08:36:51.704Z,11.64
2022-09-23T08:39:22.996Z,11.64
2022-09-23T08:42:26.143Z,11.73
2022-09-23T08:45:22.349Z,11.90
2022-09-23T08:48:41.888Z,12.04
2022-09-23T08:51:51.674Z,12.07
2022-09-23T08:54:36.243Z,12.15
2022-09-23T08:57:41.802Z,12.26
2022-09-23T09:00:35.322Z,12.36
2022-09-23T09:07:47.028Z,12.25
2022-09-23T09:11:00.535Z,12.69
2022-09-23T09:17:57.910Z,12.76
2022-09-23T09:18:27.852Z,12.69
2022-09-23T09:21:16.786Z,12.80
2022-09-23T09:24:16.727Z,13.08
2022-09-23T09:27:20.535Z,13.31
2022-09-23T09:29:54.988Z,13.09
2022-09-23T09:32:58.146Z,13.00
2022-09-23T09:36:26.007Z,13.01
2022-09-23T09:38:59.533Z,13.28
2022-09-23T09:43:04.709Z,13.34
2022-09-23T09:49:23.015Z,13.06
2022-09-23T09:52:34.322Z,13.25
2022-09-23T09:55:51.301Z,13.76
2022-09-23T09:58:20.780Z,13.78
2022-09-23T10:00:52.171Z,13.76
2022-09-23T10:03:40.894Z,13.97
2022-09-23T10:06:41.067Z,14.17
2022-09-23T10:09:18.819Z,14.33
2022-09-23T10:12:20.309Z,14.49
2022-09-23T10:18:47.984Z,13.99
2022-09-23T10:21:27.752Z,13.52
2022-09-23T10:27:15.911Z,12.98
2022-09-23T10:30:22.832Z,13.27
2022-09-23T10:33:15.748Z,13.38
2022-09-23T10:39:42.711Z,13.66
2022-09-23T10:42:52.016Z,13.76
2022-09-23T10:46:18.350Z,13.94
2022-09-23T10:49:27.691Z,14.12
2022-09-23T10:52:34.761Z,14.00
2022-09-23T10:55:48.764Z,14.04
2022-09-23T10:59:00.685Z,14.50
2022-09-23T11:05:50.712Z,14.67
2022-09-23T11:09:13.093Z,14.68
2022-09-23T11:15:39.823Z,14.32
2022-09-23T11:18:50.923Z,14.12
2022-09-23T11:22:04.468Z,14.12
2022-09-23T11:28:41.825Z,14.05
2022-09-23T11:35:11.274Z,13.98
2022-09-23T11:38:23.998Z,14.01
2022-09-23T11:41:38.939Z,14.04
2022-09-23T11:44:45.203Z,14.18
2022-09-23T11:53:44.764Z,14.86
2022-09-23T11:56:54.356Z,15.28
2022-09-23T12:00:38.999Z,15.55
2022-09-23T12:20:07.644Z,15.35
2022-09-23T12:22:05.799Z,15.19
2022-09-23T12:24:15.908Z,16.18
2022-09-23T12:27:31.791Z,16.01
2022-09-23T12:38:09.021Z,17.57
2022-09-23T12:41:47.153Z,17.38
2022-09-23T12:58:59.332Z,15.24
2022-09-23T13:05:31.261Z,14.89
2022-09-23T13:14:57.938Z,14.71
2022-09-23T13:18:26.033Z,14.75
2022-09-23T13:21:40.080Z,14.75
2022-09-23T13:30:52.787Z,14.55
2022-09-23T13:33:32.077Z,14.58
2022-09-23T13:36:04.001Z,14.57
2022-09-23T13:38:34.888Z,14.54
2022-09-23T13:41:10.392Z,14.49
2022-09-23T13:43:42.709Z,14.85
2022-09-23T13:46:15.831Z,15.87
2022-09-23T13:48:57.470Z,16.96
2022-09-23T13:51:36.418Z,17.49
2022-09-23T13:57:37.746Z,18.33
2022-09-23T14:00:22.778Z,17.80
2022-09-23T14:02:54.771Z,17.36
2022-09-23T14:04:17.630Z,18.07
2022-09-23T14:05:26.742Z,16.98
2022-09-23T14:08:03.354Z,16.68
2022-09-23T14:10:35.757Z,16.48
2022-09-23T14:13:04.841Z,16.03
2022-09-23T14:16:04.732Z,15.95
2022-09-23T14:19:18.818Z,15.94
2022-09-23T14:22:23.597Z,15.35
2022-09-23T14:24:56.385Z,15.10
2022-09-23T14:27:36.505Z,14.95
2022-09-23T14:30:22.186Z,14.93
2022-09-23T14:33:00.363Z,14.92
2022-09-23T14:35:39.845Z,15.10
2022-09-23T14:38:26.715Z,15.85
2022-09-23T14:41:16.797Z,16.97
2022-09-23T14:43:59.186Z,17.87
2022-09-23T14:46:32.505Z,17.75
2022-09-23T14:49:05.206Z,17.72
2022-09-23T14:51:40.769Z,17.30
2022-09-23T14:54:22.577Z,16.78
2022-09-23T14:56:49.743Z,16.11
2022-09-23T14:59:35.057Z,15.55
2022-09-23T15:02:22.078Z,15.02
2022-09-23T15:04:48.773Z,14.59
2022-09-23T15:07:20.056Z,14.26
2022-09-23T15:09:46.619Z,13.84
2022-09-23T15:12:18.161Z,13.51
2022-09-23T15:14:50.716Z,12.85
2022-09-23T15:17:33.879Z,12.40
2022-09-23T15:20:05.876Z,12.11
2022-09-23T15:22:42.870Z,11.89
2022-09-23T15:25:24.206Z,11.27
2022-09-23T15:28:17.965Z,11.16
2022-09-23T15:30:45.106Z,10.96
2022-09-23T15:33:14.536Z,10.72
2022-09-23T15:35:45.858Z,10.49
2022-09-23T15:38:13.013Z,10.48
2022-09-23T15:40:40.632Z,10.45
2022-09-23T15:43:22.691Z,10.37
2022-09-23T15:45:52.569Z,10.30
2022-09-23T15:48:24.450Z,10.32
2022-09-23T15:50:51.828Z,10.29
2022-09-23T15:53:23.259Z,10.19
2022-09-23T15:55:50.941Z,10.21
2022-09-23T15:58:19.955Z,10.22
2022-09-23T16:00:56.059Z,10.12
2022-09-23T16:03:27.692Z,10.04
2022-09-23T16:06:00.413Z,10.01
2022-09-23T16:08:28.384Z,9.97
2022-09-23T16:10:55.454Z,9.87
2022-09-23T16:13:22.346Z,9.82
2022-09-23T16:15:49.322Z,9.78
2022-09-23T16:18:15.865Z,9.72
2022-09-23T16:20:45.133Z,9.66
2022-09-23T16:23:33.323Z,9.61
2022-09-23T16:26:04.242Z,9.57
2022-09-23T16:28:31.104Z,9.53
2022-09-23T16:30:57.662Z,9.50
2022-09-23T16:33:24.272Z,9.49
2022-09-23T16:35:51.619Z,9.47
2022-09-23T16:38:19.101Z,9.46
2022-09-23T16:40:47.289Z,9.45
2022-09-23T16:43:14.093Z,9.44
2022-09-23T16:45:40.884Z,9.40
2022-09-23T16:48:08.059Z,9.35
2022-09-23T16:50:34.782Z,9.29
2022-09-23T16:53:01.644Z,9.25
2022-09-23T16:55:28.441Z,9.22
2022-09-23T16:57:55.349Z,9.21
2022-09-23T17:00:35.712Z,9.20
2022-09-23T17:03:15.636Z,9.20
2022-09-23T17:05:46.607Z,9.16
2022-09-23T17:08:16.835Z,9.11
2022-09-23T17:10:45.252Z,9.05
2022-09-23T17:13:16.665Z,9.01
2022-09-23T17:15:43.435Z,8.96
2022-09-23T17:18:10.068Z,8.90
2022-09-23T17:20:38.048Z,8.84
2022-09-23T17:23:05.065Z,8.78
2022-09-23T17:25:33.780Z,8.74
2022-09-23T17:28:01.728Z,8.70
2022-09-23T17:30:28.270Z,8.68
2022-09-23T17:32:54.914Z,8.67
2022-09-23T17:35:21.486Z,8.66
2022-09-23T17:37:48.082Z,8.64
2022-09-23T17:40:14.910Z,8.65
2022-09-23T17:42:41.879Z,8.67
2022-09-23T17:45:11.875Z,8.68
2022-09-23T17:47:41.733Z,8.70
2022-09-23T17:50:08.936Z,8.71
2022-09-23T17:52:35.565Z,8.72
2022-09-23T17:55:02.124Z,8.74
2022-09-23T17:57:28.690Z,8.74
2022-09-23T17:59:55.613Z,8.75
2022-09-23T18:02:22.407Z,8.74
2022-09-23T18:04:49.179Z,8.76
2022-09-23T18:07:16.279Z,8.79
2022-09-23T18:09:42.858Z,8.82
2022-09-23T18:12:09.456Z,8.86
2022-09-23T18:14:35.942Z,8.91
2022-09-23T18:17:02.469Z,8.94
2022-09-23T18:19:29.018Z,8.96
2022-09-23T18:21:56.575Z,8.98
2022-09-23T18:24:32.683Z,8.99
2022-09-23T18:27:00.564Z,8.97
2022-09-23T18:29:27.456Z,8.95
2022-09-23T18:31:54.401Z,8.90
2022-09-23T18:34:21.360Z,8.83
2022-09-23T18:36:48.002Z,8.77
2022-09-23T18:39:14.692Z,8.69
2022-09-23T18:41:41.615Z,8.61
2022-09-23T18:44:09.659Z,8.55
2022-09-23T18:46:36.788Z,8.47
2022-09-23T18:49:22.192Z,8.42
2022-09-23T18:51:53.187Z,8.36
2022-09-23T18:54:20.883Z,8.31
2022-09-23T18:56:48.742Z,8.27
2022-09-23T18:59:18.953Z,8.23
2022-09-23T19:01:49.319Z,8.18
2022-09-23T19:04:18.831Z,8.15
2022-09-23T19:06:45.730Z,8.12
2022-09-23T19:09:14.406Z,8.09
2022-09-23T19:11:41.105Z,8.08
2022-09-23T19:14:11.347Z,8.06
2022-09-23T19:16:40.241Z,8.05
2022-09-23T19:19:07.534Z,8.04
2022-09-23T19:21:34.732Z,8.05
2022-09-23T19:24:04.107Z,8.09
2022-09-23T19:26:34.315Z,8.13
2022-09-23T19:29:02.485Z,8.18
2022-09-23T19:31:37.868Z,8.23
2022-09-23T19:34:09.912Z,8.30
2022-09-23T19:37:09.850Z,8.36
2022-09-23T19:40:36.826Z,8.45
2022-09-23T19:43:41.747Z,8.54
2022-09-23T19:46:57.110Z,8.59
2022-09-23T19:50:04.825Z,8.64
2022-09-23T19:53:28.905Z,8.65
2022-09-23T19:56:41.009Z,8.63
2022-09-23T19:59:55.728Z,8.60
2022-09-23T20:03:13.794Z,8.55
2022-09-23T20:06:27.825Z,8.50
2022-09-23T20:09:42.831Z,8.46
2022-09-23T20:13:37.559Z,8.45
2022-09-23T20:17:24.737Z,8.44
2022-09-23T20:20:15.353Z,8.44
2022-09-23T20:23:08.749Z,8.45
2022-09-23T20:26:23.907Z,8.45
2022-09-23T20:29:31.802Z,8.43
2022-09-23T20:32:56.728Z,8.40
2022-09-23T20:36:26.723Z,8.39
2022-09-23T20:39:43.778Z,8.38
2022-09-23T20:42:47.203Z,8.38
2022-09-23T20:45:39.804Z,8.38
2022-09-23T20:52:48.034Z,8.37
2022-09-23T20:56:40.997Z,8.36
2022-09-23T21:00:06.117Z,8.35
2022-09-23T21:03:32.146Z,8.35
2022-09-23T21:07:11.789Z,8.34
2022-09-23T21:10:55.877Z,8.31
2022-09-23T21:14:11.723Z,8.29
2022-09-23T21:17:39.086Z,8.28
2022-09-23T21:21:10.755Z,8.27
2022-09-23T21:28:50.037Z,8.31
2022-09-23T21:32:08.816Z,8.33
2022-09-23T21:35:35.758Z,8.40
2022-09-23T21:38:42.618Z,8.45
2022-09-23T21:42:10.050Z,8.44
2022-09-23T21:45:57.052Z,8.41
2022-09-23T21:49:05.764Z,8.34
2022-09-23T21:52:19.746Z,8.24
2022-09-23T21:55:41.746Z,8.14
2022-09-23T21:58:48.080Z,8.02
2022-09-23T22:02:35.471Z,7.89
2022-09-23T22:06:07.761Z,7.75
2022-09-23T22:09:26.743Z,7.59
2022-09-23T22:16:16.925Z,7.32
2022-09-23T22:19:45.752Z,7.20
2022-09-23T22:23:06.727Z,7.06
2022-09-23T22:26:05.849Z,6.96
2022-09-23T22:29:44.861Z,6.88
2022-09-23T22:33:29.022Z,6.80
2022-09-23T22:36:45.853Z,6.75
2022-09-23T22:40:03.162Z,6.69
2022-09-23T22:43:18.786Z,6.65
2022-09-23T22:46:44.157Z,6.62
2022-09-23T22:49:50.051Z,6.58
2022-09-23T22:53:03.755Z,6.56
2022-09-23T22:56:10.698Z,6.57
2022-09-23T22:59:26.820Z,6.60
2022-09-23T23:02:31.711Z,6.61
2022-09-23T23:05:50.798Z,6.64
2022-09-23T23:09:06.788Z,6.69
2022-09-23T23:12:04.828Z,6.74
2022-09-23T23:15:32.777Z,6.80
2022-09-23T23:18:39.777Z,6.85
2022-09-23T23:21:54.782Z,6.87
2022-09-23T23:25:13.778Z,6.89
2022-09-23T23:28:21.700Z,6.88
2022-09-23T23:31:31.865Z,6.85
2022-09-23T23:34:41.756Z,6.80
2022-09-23T23:37:56.819Z,6.74
2022-09-23T23:41:02.864Z,6.67
2022-09-23T23:44:23.180Z,6.62
2022-09-23T23:48:05.744Z,6.56
2022-09-23T23:51:12.861Z,6.49
2022-09-23T23:54:34.813Z,6.40
2022-09-23T23:57:42.764Z,6.32
